Time;durP1;ratioP1;P1;durP2;ratioP2;P2;SDS_P1;SDS_P2;PMS_P1;PMS_P2;Temp;Humidity;BMP_temperature;BMP_pressure;BME280_temperature;BME280_humidity;BME280_pressure;Samples;Min_cycle;Max_cycle;Signal;HPM_P1;HPM_P2
2024/01/24 00:00:20;;;;;;;3.72;1.30;;;;;;;8.69;57.82;101180.28;5045849;28;20362;-44
2024/01/24 00:02:48;;;;;;;3.00;0.82;;;;;;;8.69;58.02;101161.91;5040699;28;20033;-44
2024/01/24 00:05:13;;;;;;;4.03;1.48;;;;;;;8.71;58.05;101153.97;5040969;28;20052;-44
2024/01/24 00:07:38;;;;;;;4.95;1.00;;;;;;;8.71;58.24;101149.53;5042503;28;20041;-46
2024/01/24 00:10:04;;;;;;;2.42;0.40;;;;;;;8.78;58.32;101147.50;5036828;28;20072;-46
2024/01/24 00:12:29;;;;;;;3.47;1.05;;;;;;;8.78;58.10;101144.88;5042876;28;20055;-45
2024/01/24 00:14:55;;;;;;;3.55;1.05;;;;;;;8.66;58.66;101115.66;5043184;28;20040;-45
2024/01/24 00:17:20;;;;;;;3.10;0.95;;;;;;;8.67;59.16;101092.91;5041170;28;20036;-45
2024/01/24 00:19:46;;;;;;;3.17;0.95;;;;;;;8.71;59.00;101086.56;5038356;28;20045;-45
2024/01/24 00:22:11;;;;;;;3.15;1.02;;;;;;;8.73;59.24;101084.75;5042945;28;20419;-44
2024/01/24 00:24:37;;;;;;;2.80;0.65;;;;;;;8.81;59.20;101081.78;5043415;28;20135;-45
2024/01/24 00:27:02;;;;;;;2.92;0.70;;;;;;;8.89;58.76;101068.31;5043368;28;20043;-44
2024/01/24 00:29:27;;;;;;;2.85;0.63;;;;;;;8.92;59.07;101058.53;5039156;28;20025;-45
2024/01/24 00:31:55;;;;;;;2.40;0.40;;;;;;;8.96;59.02;101061.88;5040381;28;20056;-48
2024/01/24 00:34:20;;;;;;;3.65;1.08;;;;;;;8.96;59.11;101059.25;5057376;28;20366;-46
2024/01/24 00:36:46;;;;;;;3.88;1.05;;;;;;;8.98;59.13;101047.75;5040020;28;20037;-44
2024/01/24 00:39:13;;;;;;;4.20;1.45;;;;;;;8.90;59.56;101023.66;5036395;28;20163;-46
2024/01/24 00:41:41;;;;;;;8.25;3.83;;;;;;;8.85;59.84;101000.22;5051330;28;20036;-44
2024/01/24 00:44:07;;;;;;;3.78;1.13;;;;;;;8.78;60.15;100988.31;5040775;28;20024;-47
2024/01/24 00:46:32;;;;;;;4.07;1.13;;;;;;;8.84;60.13;100987.19;5034387;28;20030;-44
2024/01/24 00:48:57;;;;;;;3.70;1.03;;;;;;;8.74;60.29;100976.25;5039724;28;20063;-46
2024/01/24 00:51:22;;;;;;;3.77;1.17;;;;;;;8.72;60.81;100972.84;5038712;28;20297;-45
2024/01/24 00:53:51;;;;;;;3.70;1.08;;;;;;;8.73;61.04;100963.22;5009457;28;20322;-46
2024/01/24 00:56:17;;;;;;;3.60;0.82;;;;;;;8.65;61.30;100950.47;5001189;28;20029;-46
2024/01/24 00:58:42;;;;;;;3.20;0.60;;;;;;;8.66;61.44;100939.88;5041771;28;20071;-44
2024/01/24 01:01:07;;;;;;;2.92;0.88;;;;;;;8.72;61.08;100930.03;5047339;28;20070;-44
2024/01/24 01:03:32;;;;;;;6.55;3.30;;;;;;;8.71;61.38;100907.34;5029714;28;20809;-47
2024/01/24 01:05:58;;;;;;;3.40;1.80;;;;;;;8.66;62.04;100894.44;5043178;28;20108;-47
2024/01/24 01:08:23;;;;;;;3.10;0.83;;;;;;;8.67;61.40;100881.25;5044684;28;20289;-45
2024/01/24 01:10:48;;;;;;;3.28;0.73;;;;;;;8.67;61.84;100864.66;5043181;28;20295;-46
2024/01/24 01:13:14;;;;;;;2.78;0.30;;;;;;;8.71;61.83;100853.09;5041913;28;20068;-45
2024/01/24 01:15:40;;;;;;;3.53;0.80;;;;;;;8.57;62.30;100845.91;5041946;28;20051;-46
2024/01/24 01:18:05;;;;;;;3.00;0.55;;;;;;;8.61;62.54;100842.22;5043849;28;20029;-45
2024/01/24 01:20:31;;;;;;;3.42;0.85;;;;;;;8.53;63.19;100832.09;5042724;28;20688;-46
2024/01/24 01:22:57;;;;;;;2.90;0.57;;;;;;;8.56;62.95;100827.59;5037422;28;20041;-47
2024/01/24 01:25:22;;;;;;;2.83;0.55;;;;;;;8.57;63.31;100814.41;5036968;28;20414;-45
2024/01/24 01:27:47;;;;;;;3.50;1.43;;;;;;;8.66;63.21;100803.47;5029147;28;20229;-45
2024/01/24 01:30:13;;;;;;;3.63;1.08;;;;;;;8.53;63.98;100789.25;5041969;28;20288;-47
2024/01/24 01:32:38;;;;;;;2.67;0.35;;;;;;;8.58;63.67;100789.03;5044148;28;20046;-46
2024/01/24 01:35:05;;;;;;;3.65;1.23;;;;;;;8.50;64.19;100778.91;5041172;28;20036;-47
2024/01/24 01:37:30;;;;;;;6.70;3.00;;;;;;;8.50;64.34;100771.91;5031981;28;20025;-47
2024/01/24 01:39:55;;;;;;;3.08;0.55;;;;;;;8.52;64.71;100769.19;5033446;28;20033;-47
2024/01/24 01:42:21;;;;;;;3.47;0.73;;;;;;;8.62;64.48;100759.09;5046081;28;20060;-46
2024/01/24 01:44:47;;;;;;;3.00;0.55;;;;;;;8.60;64.61;100742.59;5042309;28;20032;-44
2024/01/24 01:47:16;;;;;;;4.50;2.55;;;;;;;8.50;65.56;100753.53;5031996;28;20024;-47
2024/01/24 01:49:45;;;;;;;4.55;1.58;;;;;;;8.64;65.27;100741.53;5047975;28;20572;-45
2024/01/24 01:52:11;;;;;;;3.13;0.55;;;;;;;8.66;65.23;100731.81;5047999;28;20040;-47
2024/01/24 01:54:38;;;;;;;3.22;0.73;;;;;;;8.64;65.63;100713.50;5042588;28;20041;-46
2024/01/24 01:57:08;;;;;;;3.28;0.68;;;;;;;8.66;65.79;100705.56;5043579;28;20061;-44
2024/01/24 01:59:33;;;;;;;3.60;0.85;;;;;;;8.64;65.85;100679.41;5049445;28;20033;-45
2024/01/24 02:02:00;;;;;;;3.30;0.73;;;;;;;8.72;65.53;100671.16;5049255;28;20090;-43
2024/01/24 02:04:27;;;;;;;5.30;1.95;;;;;;;8.63;66.26;100674.25;5026173;28;20032;-46
2024/01/24 02:06:55;;;;;;;2.75;0.30;;;;;;;8.64;67.03;100660.22;5044921;28;20071;-44
2024/01/24 02:09:21;;;;;;;3.22;0.68;;;;;;;8.67;66.63;100657.44;5035236;28;20029;-46
2024/01/24 02:11:46;;;;;;;5.10;1.75;;;;;;;8.69;66.99;100634.59;5046060;28;20023;-44
2024/01/24 02:14:12;;;;;;;3.58;1.23;;;;;;;8.74;66.69;100645.69;5050370;28;20055;-43
2024/01/24 02:16:37;;;;;;;3.20;0.65;;;;;;;8.74;67.01;100635.19;5048354;28;20037;-48
2024/01/24 02:19:04;;;;;;;3.22;0.60;;;;;;;8.81;66.84;100612.97;5050114;28;20532;-45
2024/01/24 02:21:29;;;;;;;3.15;0.63;;;;;;;8.84;66.79;100623.31;5033477;28;20041;-43
2024/01/24 02:23:57;;;;;;;3.47;0.85;;;;;;;8.88;66.88;100620.50;5050129;28;20027;-42
2024/01/24 02:26:22;;;;;;;4.28;1.60;;;;;;;8.88;67.19;100602.13;5046445;28;20040;-45
2024/01/24 02:28:48;;;;;;;2.80;0.35;;;;;;;8.95;66.75;100616.63;5043497;28;20033;-43
2024/01/24 02:31:13;;;;;;;4.40;1.50;;;;;;;8.81;67.61;100626.09;5049928;28;20439;-45
2024/01/24 02:33:38;;;;;;;3.50;0.85;;;;;;;8.90;67.74;100616.03;5051820;28;20300;-45
2024/01/24 02:36:04;;;;;;;3.85;1.05;;;;;;;8.87;67.59;100603.94;5051396;28;20027;-44
2024/01/24 02:38:29;;;;;;;3.85;1.13;;;;;;;8.85;68.25;100597.91;5043444;28;20028;-45
2024/01/24 02:40:54;;;;;;;2.78;0.40;;;;;;;8.90;68.46;100576.66;5035754;28;20024;-44
2024/01/24 02:43:19;;;;;;;3.92;1.08;;;;;;;8.84;68.20;100573.47;5019248;28;20044;-45
2024/01/24 02:45:45;;;;;;;4.35;1.55;;;;;;;8.86;68.68;100565.50;5040575;28;20055;-45
2024/01/24 02:48:10;;;;;;;3.53;0.77;;;;;;;8.84;68.72;100562.09;5045247;28;20036;-44
2024/01/24 02:50:35;;;;;;;3.60;1.07;;;;;;;8.90;68.83;100555.66;5046608;28;20295;-44
2024/01/24 02:53:01;;;;;;;3.13;0.68;;;;;;;9.03;68.24;100554.06;5065034;28;20341;-44
2024/01/24 02:55:26;;;;;;;3.60;0.80;;;;;;;9.07;68.33;100542.50;5045558;28;20483;-44
2024/01/24 02:57:51;;;;;;;4.10;1.27;;;;;;;9.15;67.90;100532.41;5047183;28;20029;-45
2024/01/24 03:00:17;;;;;;;22.57;1.23;;;;;;;9.02;68.34;100528.75;5049204;28;20033;-44
2024/01/24 03:02:42;;;;;;;3.58;0.77;;;;;;;9.03;69.04;100514.72;5046292;28;20317;-44
2024/01/24 03:05:11;;;;;;;2.85;0.35;;;;;;;9.07;69.01;100500.50;5042988;28;20054;-44
2024/01/24 03:07:37;;;;;;;5.43;2.17;;;;;;;9.10;69.07;100494.22;5045021;28;20028;-44
2024/01/24 03:10:04;;;;;;;3.22;0.63;;;;;;;9.17;69.11;100481.59;5040417;28;20051;-44
2024/01/24 03:12:29;;;;;;;3.08;0.52;;;;;;;9.21;69.44;100476.09;5042165;28;20040;-44
2024/01/24 03:14:55;;;;;;;3.55;0.95;;;;;;;9.19;69.80;100462.22;5043100;28;20094;-45
2024/01/24 03:17:20;;;;;;;4.05;1.17;;;;;;;9.17;69.99;100474.56;5047637;28;20033;-45
2024/01/24 03:19:45;;;;;;;3.65;0.85;;;;;;;9.17;70.64;100447.47;5044206;28;20099;-44
2024/01/24 03:22:11;;;;;;;3.47;0.63;;;;;;;9.21;70.79;100457.72;5048148;28;20036;-44
2024/01/24 03:24:36;;;;;;;3.97;1.02;;;;;;;9.22;71.00;100458.56;5050254;28;20425;-44
2024/01/24 03:27:01;;;;;;;4.63;1.55;;;;;;;9.28;70.86;100458.22;5037976;28;20151;-44
2024/01/24 03:29:26;;;;;;;2.95;0.30;;;;;;;9.25;71.35;100456.59;5046635;28;20045;-45
2024/01/24 03:31:52;;;;;;;3.20;0.50;;;;;;;9.34;71.08;100444.72;5050992;28;20120;-44
2024/01/24 03:34:17;;;;;;;3.38;0.65;;;;;;;9.36;71.37;100439.41;5049646;28;20287;-44
2024/01/24 03:36:42;;;;;;;4.95;1.75;;;;;;;9.33;71.56;100443.03;5045509;28;20124;-44
2024/01/24 03:39:11;;;;;;;3.63;0.68;;;;;;;9.29;71.80;100431.03;5034224;28;20069;-44
2024/01/24 03:41:37;;;;;;;3.85;0.93;;;;;;;9.45;71.71;100409.97;5047242;28;20021;-45
2024/01/24 03:44:03;;;;;;;3.80;0.85;;;;;;;9.39;71.86;100415.56;5045699;28;20475;-44
2024/01/24 03:46:28;;;;;;;3.65;0.70;;;;;;;9.53;71.92;100415.63;5048799;28;20124;-45
2024/01/24 03:48:54;;;;;;;3.70;0.70;;;;;;;9.63;71.64;100412.47;5048069;28;20126;-45
2024/01/24 03:51:19;;;;;;;3.50;0.60;;;;;;;9.66;71.65;100423.63;5048473;28;20055;-45
2024/01/24 03:53:44;;;;;;;3.40;0.53;;;;;;;9.64;71.75;100399.22;5044881;28;20291;-46
2024/01/24 03:56:09;;;;;;;4.07;1.40;;;;;;;9.62;71.81;100382.72;5044073;28;20758;-43
2024/01/24 03:58:36;;;;;;;3.95;0.93;;;;;;;9.68;72.25;100403.38;5045931;28;20056;-43
2024/01/24 04:01:01;;;;;;;3.70;0.73;;;;;;;9.66;71.92;100407.88;5048071;28;20066;-46
2024/01/24 04:03:27;;;;;;;7.65;2.78;;;;;;;9.65;72.14;100379.06;5060233;28;21030;-46
2024/01/24 04:05:52;;;;;;;3.05;0.32;;;;;;;9.75;71.93;100372.31;5043056;28;20034;-45
2024/01/24 04:08:17;;;;;;;3.67;0.60;;;;;;;9.75;72.18;100352.16;5026437;28;20055;-45
2024/01/24 04:10:42;;;;;;;4.03;0.88;;;;;;;9.88;72.04;100390.81;5050332;28;20035;-43
2024/01/24 04:13:08;;;;;;;4.53;1.40;;;;;;;9.94;71.92;100377.28;5044685;28;20067;-47
2024/01/24 04:15:33;;;;;;;3.47;0.73;;;;;;;9.88;71.93;100359.28;5045709;28;20048;-44
2024/01/24 04:17:59;;;;;;;3.10;0.50;;;;;;;9.85;72.23;100338.44;5046205;28;20033;-45
2024/01/24 04:20:24;;;;;;;3.03;0.35;;;;;;;10.02;72.09;100353.16;5045939;28;20295;-44
2024/01/24 04:22:49;;;;;;;5.82;2.17;;;;;;;10.04;72.44;100333.75;5048214;28;20037;-43
2024/01/24 04:25:15;;;;;;;4.47;1.33;;;;;;;10.24;71.67;100313.25;5043596;28;20041;-44
2024/01/24 04:27:40;;;;;;;3.55;0.60;;;;;;;10.22;71.60;100294.09;5043809;28;20769;-45
2024/01/24 04:30:06;;;;;;;4.03;0.83;;;;;;;10.22;71.70;100304.59;5043191;28;20443;-45
2024/01/24 04:32:31;;;;;;;3.38;0.52;;;;;;;10.29;71.92;100300.66;5046944;28;20303;-45
2024/01/24 04:34:57;;;;;;;3.13;0.43;;;;;;;10.31;72.16;100276.88;5041215;28;20039;-45
2024/01/24 04:37:22;;;;;;;3.15;0.40;;;;;;;10.37;72.30;100265.97;5042665;28;20025;-45
2024/01/24 04:39:48;;;;;;;4.03;1.00;;;;;;;10.41;71.83;100282.41;5041645;28;20645;-44
2024/01/24 04:42:13;;;;;;;3.65;0.68;;;;;;;10.33;72.57;100277.63;5046448;28;20543;-46
2024/01/24 04:44:39;;;;;;;3.33;0.50;;;;;;;10.47;72.13;100272.34;5045369;28;20112;-46
2024/01/24 04:47:04;;;;;;;4.83;0.83;;;;;;;10.43;72.31;100259.50;5044098;28;20490;-47
2024/01/24 04:49:29;;;;;;;3.28;0.52;;;;;;;10.60;72.05;100255.75;5028630;28;20286;-46
2024/01/24 04:51:55;;;;;;;3.45;0.32;;;;;;;10.82;71.25;100250.78;5042672;28;20041;-46
2024/01/24 04:54:20;;;;;;;4.78;1.60;;;;;;;10.76;71.53;100276.66;5043199;28;20040;-39
2024/01/24 04:56:46;;;;;;;4.07;0.82;;;;;;;10.78;71.78;100256.34;5043550;28;20033;-38
2024/01/24 04:59:18;;;;;;;4.15;0.63;;;;;;;10.79;71.46;100258.03;5033842;28;20057;-38
2024/01/24 05:01:43;;;;;;;3.97;0.55;;;;;;;10.96;71.37;100236.69;5046111;28;20064;-39
2024/01/24 05:04:09;;;;;;;4.18;0.57;;;;;;;10.84;71.50;100242.75;5047458;28;20247;-39
2024/01/24 05:06:35;;;;;;;4.00;0.75;;;;;;;10.95;71.50;100261.34;5053754;28;20021;-39
2024/01/24 05:09:01;;;;;;;3.95;0.63;;;;;;;10.98;71.43;100237.41;5049861;28;20029;-39
2024/01/24 05:11:26;;;;;;;4.32;0.43;;;;;;;10.87;71.65;100242.56;5046179;28;20051;-39
2024/01/24 05:13:53;;;;;;;4.40;0.63;;;;;;;10.97;71.33;100243.63;5050055;28;20411;-39
2024/01/24 05:16:18;;;;;;;5.13;1.25;;;;;;;10.97;71.42;100222.56;5047500;28;20372;-38
2024/01/24 05:18:43;;;;;;;5.38;0.68;;;;;;;11.02;71.59;100231.94;5044505;28;20041;-40
2024/01/24 05:21:09;;;;;;;7.28;1.10;;;;;;;11.18;71.31;100235.22;5047653;28;20025;-39
2024/01/24 05:23:34;;;;;;;11.65;6.95;;;;;;;11.14;71.28;100228.47;5032636;28;20033;-38
2024/01/24 05:25:59;;;;;;;4.93;0.85;;;;;;;11.26;71.24;100240.81;5049029;28;20029;-44
2024/01/24 05:28:24;;;;;;;4.85;0.95;;;;;;;11.03;71.70;100257.31;5042620;28;20177;-45
2024/01/24 05:30:50;;;;;;;4.53;0.45;;;;;;;11.27;70.98;100237.22;5047275;28;20056;-44
2024/01/24 05:33:15;;;;;;;4.88;0.63;;;;;;;11.40;70.82;100210.88;5052980;28;20035;-44
2024/01/24 05:35:41;;;;;;;5.68;0.80;;;;;;;11.42;70.86;100222.16;5048177;28;20033;-44
2024/01/24 05:38:06;;;;;;;5.47;1.02;;;;;;;11.41;70.74;100230.19;5050758;28;20171;-45
2024/01/24 05:40:31;;;;;;;5.05;1.45;;;;;;;11.44;70.24;100214.13;5051488;28;20048;-44
2024/01/24 05:42:56;;;;;;;5.47;0.73;;;;;;;11.47;70.64;100224.47;5049137;28;20111;-46
2024/01/24 05:45:23;;;;;;;5.15;1.13;;;;;;;11.35;70.51;100235.84;5049434;28;20263;-45
2024/01/24 05:47:48;;;;;;;4.72;0.90;;;;;;;11.49;70.81;100225.19;5048440;28;20076;-44
2024/01/24 05:50:14;;;;;;;4.57;0.60;;;;;;;11.57;70.45;100220.22;5052195;28;20055;-44
2024/01/24 05:52:40;;;;;;;4.55;0.57;;;;;;;11.70;70.09;100225.47;5046338;28;20037;-45
2024/01/24 05:55:06;;;;;;;5.35;0.93;;;;;;;11.82;69.71;100221.13;5046064;28;20036;-38
2024/01/24 05:57:32;;;;;;;4.68;0.73;;;;;;;11.82;69.69;100201.81;5039657;28;20064;-39
2024/01/24 05:59:58;;;;;;;6.22;1.75;;;;;;;11.87;69.59;100203.19;5039929;28;20037;-41
2024/01/24 06:02:23;;;;;;;5.22;0.75;;;;;;;11.89;69.62;100213.63;5045486;28;20032;-38
2024/01/24 06:04:48;;;;;;;4.80;0.40;;;;;;;11.94;69.75;100221.22;5046170;28;20040;-38
2024/01/24 06:07:14;;;;;;;5.18;0.70;;;;;;;11.90;69.83;100216.16;5050722;28;20737;-38
2024/01/24 06:09:39;;;;;;;5.22;0.75;;;;;;;11.78;69.90;100238.13;5048930;28;20036;-43
2024/01/24 06:12:05;;;;;;;5.13;0.70;;;;;;;11.99;69.91;100216.47;5043383;28;20052;-41
2024/01/24 06:14:30;;;;;;;5.28;0.88;;;;;;;12.04;69.88;100172.16;5045163;28;20041;-37
2024/01/24 06:16:55;;;;;;;4.82;0.73;;;;;;;12.06;70.01;100151.78;5048775;28;20186;-36
2024/01/24 06:19:20;;;;;;;5.78;1.27;;;;;;;11.99;70.09;100161.13;5048526;28;20116;-37
2024/01/24 06:21:46;;;;;;;4.60;0.40;;;;;;;12.10;70.12;100182.25;5039018;28;20134;-41
2024/01/24 06:24:11;;;;;;;6.20;1.52;;;;;;;12.11;69.64;100181.31;5045901;28;20279;-43
2024/01/24 06:26:37;;;;;;;4.85;0.50;;;;;;;12.22;69.42;100180.53;5048016;28;20377;-45
2024/01/24 06:29:03;;;;;;;5.38;0.63;;;;;;;12.20;69.38;100174.50;5049534;28;20040;-46
2024/01/24 06:31:28;;;;;;;4.85;0.43;;;;;;;12.25;69.37;100160.97;5045772;28;20032;-45
2024/01/24 06:33:54;;;;;;;5.40;0.70;;;;;;;12.29;69.58;100162.44;5053522;28;20033;-44
2024/01/24 06:36:20;;;;;;;5.40;0.65;;;;;;;12.32;69.47;100167.50;5036601;28;20041;-45
2024/01/24 06:38:46;;;;;;;5.20;0.38;;;;;;;12.38;69.45;100167.03;5042951;28;20041;-45
2024/01/24 06:41:12;;;;;;;5.20;0.47;;;;;;;12.32;69.32;100178.06;5044284;28;20163;-44
2024/01/24 06:43:42;;;;;;;5.43;0.52;;;;;;;12.49;69.64;100185.53;5048978;28;20407;-45
2024/01/24 06:46:08;;;;;;;6.25;1.35;;;;;;;12.48;69.24;100191.75;5049646;28;20048;-45
2024/01/24 06:48:34;;;;;;;5.57;0.65;;;;;;;12.29;70.54;100188.81;5048859;28;20032;-45
2024/01/24 06:50:59;;;;;;;5.50;0.52;;;;;;;12.49;69.76;100189.97;5049693;28;20040;-45
2024/01/24 06:53:24;;;;;;;10.10;1.08;;;;;;;12.50;69.79;100204.84;5048810;28;20033;-45
2024/01/24 06:55:50;;;;;;;5.95;0.70;;;;;;;12.68;69.25;100202.63;5050462;28;20120;-45
2024/01/24 06:58:15;;;;;;;6.32;1.00;;;;;;;12.71;69.01;100206.81;5051273;28;20037;-45
2024/01/24 07:00:40;;;;;;;8.00;2.40;;;;;;;12.52;69.17;100215.28;5040849;28;20036;-43
2024/01/24 07:03:06;;;;;;;5.83;0.60;;;;;;;12.52;69.31;100216.16;5042225;28;20056;-45
2024/01/24 07:05:31;;;;;;;6.22;0.77;;;;;;;12.69;69.46;100206.94;5045679;28;20683;-46
2024/01/24 07:07:57;;;;;;;6.68;0.95;;;;;;;12.50;69.84;100208.31;5031064;28;20021;-46
2024/01/24 07:10:22;;;;;;;5.68;0.47;;;;;;;12.65;69.37;100205.50;5045254;28;20028;-45
2024/01/24 07:12:48;;;;;;;6.18;0.50;;;;;;;12.60;69.85;100181.25;5050375;28;20048;-45
2024/01/24 07:15:17;;;;;;;7.25;1.45;;;;;;;12.70;69.25;100187.53;5048773;28;20037;-46
2024/01/24 07:17:42;;;;;;;6.13;0.70;;;;;;;12.53;69.27;100201.13;5040465;28;20606;-44
2024/01/24 07:20:08;;;;;;;6.35;0.80;;;;;;;12.68;69.03;100186.78;5046681;28;20067;-44
2024/01/24 07:22:33;;;;;;;6.38;1.02;;;;;;;12.67;69.00;100173.72;5052699;28;20651;-45
2024/01/24 07:24:59;;;;;;;6.10;0.73;;;;;;;12.74;68.71;100159.09;5038981;28;20041;-45
2024/01/24 07:27:24;;;;;;;6.15;0.80;;;;;;;12.73;68.54;100144.19;5036429;28;20306;-44
2024/01/24 07:29:49;;;;;;;6.13;0.83;;;;;;;12.76;68.23;100183.56;5044407;28;20055;-46
2024/01/24 07:32:15;;;;;;;7.00;1.47;;;;;;;12.78;68.59;100179.84;5037702;28;20299;-47
2024/01/24 07:34:40;;;;;;;6.22;0.98;;;;;;;12.81;68.35;100197.28;5045392;28;20801;-47
2024/01/24 07:37:07;;;;;;;6.78;0.90;;;;;;;12.70;68.41;100192.81;5041322;28;20029;-47
2024/01/24 07:39:32;;;;;;;6.40;0.95;;;;;;;12.95;68.23;100198.84;5042708;28;20476;-46
2024/01/24 07:41:58;;;;;;;6.43;0.95;;;;;;;13.06;67.59;100225.28;5044796;28;20048;-47
2024/01/24 07:44:23;;;;;;;6.97;1.55;;;;;;;13.16;67.16;100240.44;5039330;28;20029;-46
2024/01/24 07:46:49;;;;;;;6.85;2.97;;;;;;;13.29;66.85;100245.63;5043762;28;20021;-47
2024/01/24 07:49:14;;;;;;;7.97;2.17;;;;;;;13.29;66.79;100278.16;5044179;28;20053;-48
2024/01/24 07:51:41;;;;;;;6.70;1.48;;;;;;;13.44;66.20;100241.81;5048868;28;20037;-46
2024/01/24 07:54:07;;;;;;;6.78;1.25;;;;;;;13.50;65.96;100259.00;5043276;28;20020;-45
2024/01/24 07:56:32;;;;;;;6.72;0.90;;;;;;;13.31;66.59;100270.13;5043496;28;20048;-45
2024/01/24 07:58:58;;;;;;;6.82;1.05;;;;;;;13.57;65.92;100257.53;5044908;28;21477;-46
2024/01/24 08:01:23;;;;;;;10.77;4.07;;;;;;;13.61;65.65;100266.94;5037595;28;20037;-49
2024/01/24 08:03:48;;;;;;;7.00;0.70;;;;;;;13.48;65.56;100264.38;5021678;28;20299;-46
2024/01/24 08:06:14;;;;;;;6.95;0.80;;;;;;;13.45;65.85;100255.88;5047734;28;20072;-47
2024/01/24 08:08:39;;;;;;;7.30;0.90;;;;;;;13.49;66.12;100244.94;5043958;28;20054;-45
2024/01/24 08:11:04;;;;;;;6.97;0.52;;;;;;;13.60;65.90;100240.63;5046481;28;20029;-46
2024/01/24 08:13:31;;;;;;;9.23;2.78;;;;;;;13.59;65.69;100258.28;5045038;28;20039;-48
2024/01/24 08:15:57;;;;;;;8.45;4.53;;;;;;;13.69;65.35;100274.25;5042542;28;20060;-46
2024/01/24 08:18:22;;;;;;;9.65;5.15;;;;;;;13.63;65.52;100307.31;5042060;28;20067;-46
2024/01/24 08:20:50;;;;;;;9.65;4.80;;;;;;;13.40;66.57;100274.72;5043525;28;20128;-46
2024/01/24 08:23:15;;;;;;;8.50;3.85;;;;;;;13.52;65.92;100254.44;5047282;28;20021;-47
2024/01/24 08:25:41;;;;;;;8.87;4.30;;;;;;;13.45;66.18;100267.28;5043337;28;20043;-46
2024/01/24 08:28:08;;;;;;;9.25;4.25;;;;;;;13.33;66.02;100266.41;5048089;28;20765;-47
2024/01/24 08:30:33;;;;;;;8.80;3.72;;;;;;;13.40;66.00;100262.34;5064016;28;20037;-46
2024/01/24 08:32:58;;;;;;;9.07;3.97;;;;;;;13.41;65.91;100271.13;5046617;28;20036;-46
2024/01/24 08:35:23;;;;;;;9.43;4.45;;;;;;;13.38;66.11;100274.81;5046497;28;20033;-46
2024/01/24 08:37:49;;;;;;;9.48;5.13;;;;;;;13.41;66.16;100266.66;5050066;28;20471;-46
2024/01/24 08:40:17;;;;;;;11.00;6.47;;;;;;;13.31;66.30;100278.88;5048112;28;20055;-46
2024/01/24 08:42:44;;;;;;;9.45;4.53;;;;;;;13.25;66.59;100276.69;5049059;28;20119;-45
2024/01/24 08:45:10;;;;;;;14.98;4.90;;;;;;;13.11;67.21;100281.22;5044840;28;20047;-45
2024/01/24 08:47:36;;;;;;;8.93;3.47;;;;;;;13.19;68.01;100253.41;5044556;28;20124;-46
2024/01/24 08:50:04;;;;;;;9.55;3.50;;;;;;;13.15;67.78;100270.44;5044634;28;20029;-47
2024/01/24 08:52:29;;;;;;;8.65;4.22;;;;;;;13.22;67.74;100255.81;5048694;28;20035;-46
2024/01/24 08:54:54;;;;;;;24.60;7.40;;;;;;;13.18;67.45;100263.13;5045516;28;20253;-46
2024/01/24 08:57:20;;;;;;;11.05;7.05;;;;;;;13.13;66.69;100267.94;5041953;28;20041;-46
2024/01/24 08:59:45;;;;;;;8.93;4.50;;;;;;;13.26;66.49;100275.75;5041792;28;20489;-46
2024/01/24 09:02:11;;;;;;;9.38;5.13;;;;;;;13.18;65.82;100270.22;5047791;28;20079;-46
2024/01/24 09:04:36;;;;;;;22.08;4.10;;;;;;;13.30;65.45;100290.41;5048355;28;20032;-46
2024/01/24 09:07:02;;;;;;;8.85;4.05;;;;;;;13.35;64.78;100287.41;5045915;28;20380;-46
2024/01/24 09:09:30;;;;;;;11.23;7.70;;;;;;;13.14;63.52;100292.53;5027542;28;20557;-47
2024/01/24 09:11:55;;;;;;;18.98;4.80;;;;;;;13.10;63.87;100295.41;5048219;28;20033;-49
2024/01/24 09:14:21;;;;;;;10.40;4.65;;;;;;;13.25;63.03;100300.47;5051486;28;20029;-48
2024/01/24 09:16:46;;;;;;;7.53;3.87;;;;;;;13.27;62.70;100307.34;5056495;28;20434;-47
2024/01/24 09:19:12;;;;;;;7.85;4.18;;;;;;;13.37;63.15;100312.78;5043312;28;20283;-46
2024/01/24 09:21:39;;;;;;;7.43;3.72;;;;;;;13.35;62.98;100308.53;5050817;28;20562;-46
2024/01/24 09:24:05;;;;;;;8.60;4.72;;;;;;;13.38;62.91;100314.47;5046733;28;20147;-43
2024/01/24 09:26:30;;;;;;;8.98;5.18;;;;;;;13.46;62.52;100305.13;5049520;28;20108;-45
2024/01/24 09:28:55;;;;;;;17.27;15.77;;;;;;;13.47;62.17;100306.81;5053017;28;20043;-46
2024/01/24 09:31:20;;;;;;;11.73;7.70;;;;;;;13.25;62.06;100318.97;5048806;28;20271;-49
2024/01/24 09:33:46;;;;;;;7.73;5.33;;;;;;;13.46;62.11;100305.94;5041006;28;20287;-44
2024/01/24 09:36:11;;;;;;;11.43;4.80;;;;;;;12.94;62.59;100326.56;5047269;28;20279;-46
2024/01/24 09:38:36;;;;;;;7.40;4.37;;;;;;;13.37;62.34;100326.00;5047436;28;20045;-45
2024/01/24 09:41:10;;;;;;;9.95;4.28;;;;;;;13.47;61.97;100339.34;5030174;28;20847;-46
2024/01/24 09:43:38;;;;;;;7.35;4.57;;;;;;;13.58;61.68;100341.16;5044217;28;20711;-47
2024/01/24 09:46:09;;;;;;;7.43;4.28;;;;;;;13.43;62.12;100337.06;5041346;28;20044;-46
2024/01/24 09:48:34;;;;;;;7.03;3.30;;;;;;;13.51;61.93;100324.94;5042596;28;20064;-47
2024/01/24 09:50:59;;;;;;;7.38;3.38;;;;;;;13.45;62.24;100314.00;5026725;28;20674;-47
2024/01/24 09:53:30;;;;;;;8.23;5.25;;;;;;;13.50;62.11;100311.84;5046370;28;20033;-47
2024/01/24 09:55:56;;;;;;;17.20;5.20;;;;;;;13.46;62.32;100327.09;5038913;28;20032;-47
2024/01/24 09:58:21;;;;;;;8.98;2.70;;;;;;;13.53;62.11;100315.09;5039142;28;20040;-47
2024/01/24 10:00:47;;;;;;;4.85;2.28;;;;;;;13.56;61.84;100306.94;5040720;28;20419;-46
2024/01/24 10:03:13;;;;;;;5.05;2.25;;;;;;;13.56;61.50;100314.88;5051776;28;20114;-47
2024/01/24 10:05:40;;;;;;;6.35;3.38;;;;;;;13.38;62.14;100303.88;5047259;28;20049;-46
2024/01/24 10:08:05;;;;;;;7.53;4.30;;;;;;;13.48;61.43;100324.34;5051503;28;20032;-46
2024/01/24 10:10:30;;;;;;;6.15;4.97;;;;;;;13.27;62.00;100339.06;5047913;28;20037;-47
2024/01/24 10:12:55;;;;;;;6.77;5.23;;;;;;;13.31;61.68;100322.97;5044910;28;20044;-46
2024/01/24 10:15:21;;;;;;;15.47;6.13;;;;;;;13.25;62.02;100332.19;5047392;28;20754;-46
2024/01/24 10:17:46;;;;;;;28.88;6.53;;;;;;;13.22;62.07;100329.78;5050253;28;20341;-47
2024/01/24 10:20:12;;;;;;;10.07;5.82;;;;;;;13.24;61.71;100338.41;5051287;28;20024;-46
2024/01/24 10:22:39;;;;;;;5.95;4.47;;;;;;;13.34;61.51;100338.56;5046386;28;20107;-46
2024/01/24 10:25:04;;;;;;;6.28;4.35;;;;;;;13.62;61.04;100329.41;5046909;28;20029;-47
2024/01/24 10:27:32;;;;;;;9.93;6.80;;;;;;;13.45;60.97;100336.00;5047689;28;20083;-46
2024/01/24 10:29:59;;;;;;;7.22;4.20;;;;;;;13.40;60.33;100360.13;5043356;28;20430;-47
2024/01/24 10:32:24;;;;;;;9.13;6.65;;;;;;;13.29;60.91;100362.72;5002684;28;20052;-44
2024/01/24 10:34:49;;;;;;;9.97;6.60;;;;;;;13.41;61.58;100371.53;5026178;28;20031;-44
2024/01/24 10:37:18;;;;;;;13.00;5.97;;;;;;;12.36;69.49;100382.63;5038909;28;20315;-46
2024/01/24 10:39:44;;;;;;;8.27;5.75;;;;;;;12.04;69.69;100359.38;5045785;28;20565;-47
2024/01/24 10:42:10;;;;;;;7.55;5.32;;;;;;;12.02;70.51;100359.50;5041342;28;20068;-40
2024/01/24 10:44:35;;;;;;;7.32;5.18;;;;;;;11.90;71.04;100374.34;5043513;28;20025;-41
2024/01/24 10:47:05;;;;;;;11.57;7.47;;;;;;;11.79;71.07;100371.59;5047486;28;20127;-41
2024/01/24 10:49:31;;;;;;;7.38;4.95;;;;;;;11.83;71.42;100367.81;5044885;28;20510;-40
2024/01/24 10:51:58;;;;;;;6.80;4.82;;;;;;;11.95;71.09;100362.63;5038630;28;20063;-40
2024/01/24 10:54:23;;;;;;;8.15;3.95;;;;;;;11.86;70.30;100378.16;5045290;28;20055;-40
2024/01/24 10:56:50;;;;;;;9.02;5.60;;;;;;;11.95;69.34;100346.81;5043668;28;20542;-40
2024/01/24 10:59:18;;;;;;;7.35;4.38;;;;;;;12.07;68.99;100384.72;5044065;28;20037;-40
2024/01/24 11:01:45;;;;;;;12.30;4.82;;;;;;;12.10;67.85;100358.94;5044087;28;20037;-40
2024/01/24 11:04:15;;;;;;;9.55;4.20;;;;;;;12.27;67.73;100341.09;5041055;28;20039;-40
2024/01/24 11:06:58;;;;;;;8.00;4.97;;;;;;;12.33;66.59;100353.81;5021592;28;20407;-43
2024/01/24 11:09:34;;;;;;;8.25;4.40;;;;;;;12.32;65.36;100334.53;5043820;28;20045;-39
2024/01/24 11:12:00;;;;;;;8.15;5.60;;;;;;;12.42;65.42;100342.63;5039587;28;20045;-39
2024/01/24 11:14:29;;;;;;;8.57;5.28;;;;;;;12.52;65.41;100332.25;5047967;28;20675;-45
2024/01/24 11:16:56;;;;;;;9.48;5.80;;;;;;;12.56;63.04;100325.78;5047029;28;20043;-40
2024/01/24 11:19:22;;;;;;;6.68;3.95;;;;;;;12.64;62.06;100351.63;5029376;28;20029;-43